Overview Statistics Trail Chart Weather Telemetry Raw packets
 

This is the latest recevied weather packets stored in our database for station/object KI4KWR-1. If no packets are shown the sender has not sent any weather packets the latest 10 day(s).

<< 9 10 11 12 13 14 15 >>
Time Temp. Humidity Pressure Rain* Wind** Luminosity Snow
1788386403 35° C 43% 987.7 hPa 0 mm - - -
1788385504 35° C 43% 987.8 hPa 0 mm - - -
1788384604 36.11° C 40% 987.8 hPa 0 mm - - -
1788383703 35.56° C 43% 987.9 hPa 0 mm - - -
1788382804 35° C 43% 987.9 hPa 0 mm - - -
1788381903 35.56° C 44% 988.1 hPa 0 mm - - -
1788381004 35.56° C 41% 988.2 hPa 0 mm - - -
1788380103 36.11° C 42% 988.3 hPa 0 mm - - -
1788379219 35.56° C 43% 988.6 hPa 0 mm - - -
1788378304 35.56° C 42% 988.8 hPa 0 mm - - -
1788377404 36.11° C 41% 989 hPa 0 mm - - -
1788376504 36.11° C 41% 989 hPa 0 mm - - -
1788375603 37.22° C 38% 989.2 hPa 0 mm - - -
1788374704 35.56° C 44% 989.3 hPa 0 mm - - -
1788373804 36.11° C 41% 989.4 hPa 0 mm - - -
1788372904 35.56° C 47% 989.5 hPa 0 mm - - -
1788372004 35.56° C 44% 989.8 hPa 0 mm - - -
1788371103 36.11° C 43% 990.1 hPa 0 mm - - -
1788370204 34.44° C 47% 990.3 hPa 0 mm - - -
1788369327 35.56° C 47% 990.4 hPa 0 mm - - -
1788368404 34.44° C 48% 990.8 hPa 0 mm - - -
1788367503 33.89° C 49% 990.9 hPa 0 mm - - -
1788366604 34.44° C 49% 991 hPa 0 mm - - -
1788365703 33.33° C 51% 991.1 hPa 0 mm - - -
1788364803 33.33° C 54% 991.2 hPa 0 mm - - -

* Rain latest hour (hover to see other rain measurements)
** Current wind speed in m/s (hover to see current wind gust speed)